SKBG/BGA METAR and TAF weather

Enter ICAO airport designator
Station Type Date Time Source
SKBG METAR 2019/10/15 04:00 UTC NOAA

SKBG 150400Z VRB02KT 9999 FEW008 SCT070 19/19 A3007


Station Type Date Time Source
SKBG Decoded METAR 2019/10/15 04:00 UTC NOAA

Bucaramanga / Palonegro, Colombia (SKBG) 07-06N 073-12W
Oct 15, 2019 - 12:00 AM EDT / 2019.10.15 0400 UTC
Wind: Variable at 2 MPH (2 KT):0
Visibility: greater than 7 mile(s):0
Sky conditions: partly cloudy
Temperature: 66 F (19 C)
Dew Point: 66 F (19 C)
Relative Humidity: 100%
Pressure (altimeter): 30.07 in. Hg (1018 hPa)
ob: SKBG 150400Z VRB02KT 9999 FEW008 SCT070 19/19 A3007
cycle: 4

Station Type Date Time Source
SKBG TAF 2019/10/15 06:51 UTC NOAA

TAF TAF SKBG 150430Z 1506/1606 00000KT 9999 SCT010 SCT120 PROB40
TEMPO 1509/1513 3000 RADZ BCFG SCT010CB BKN070
BECMG 1514/1516 32010KT
TEMPO 1520/1524 5000 DZRA BKN014 SCT080 TX27/1519Z TN18/1511Z

Example: see airport list